createdAt,value
2023-03-02T00:01:49.384Z,58.45
2023-03-02T00:04:22.685Z,58.14
2023-03-02T00:06:53.501Z,58.22
2023-03-02T00:09:22.026Z,58.22
2023-03-02T00:11:51.522Z,58.43
2023-03-02T00:14:20.030Z,58.24
2023-03-02T00:16:48.219Z,58.37
2023-03-02T00:19:16.390Z,58.29
2023-03-02T00:21:44.737Z,58.47
2023-03-02T00:24:14.919Z,58.33
2023-03-02T00:26:43.227Z,58.14
2023-03-02T00:29:11.624Z,58.13
2023-03-02T00:31:39.968Z,58.36
2023-03-02T00:34:08.129Z,58.11
2023-03-02T00:36:36.383Z,58.55
2023-03-02T00:39:04.868Z,58.67
2023-03-02T00:41:32.978Z,58.78
2023-03-02T00:44:02.318Z,58.68
2023-03-02T00:46:31.008Z,58.59
2023-03-02T00:49:00.368Z,58.63
2023-03-02T00:51:28.661Z,58.70
2023-03-02T00:53:56.726Z,58.71
2023-03-02T00:56:25.262Z,58.86
2023-03-02T00:58:55.071Z,58.68
2023-03-02T01:01:24.572Z,58.85
2023-03-02T01:03:55.012Z,58.95
2023-03-02T01:06:23.081Z,59.04
2023-03-02T01:08:52.395Z,59.12
2023-03-02T01:11:22.581Z,59.58
2023-03-02T01:13:52.392Z,59.35
2023-03-02T01:16:21.614Z,59.07
2023-03-02T01:18:51.345Z,58.83
2023-03-02T01:21:19.405Z,58.74
2023-03-02T01:23:48.854Z,58.79
2023-03-02T01:26:17.069Z,58.88
2023-03-02T01:28:45.361Z,58.82
2023-03-02T01:31:14.324Z,59.19
2023-03-02T01:33:42.682Z,59.26
2023-03-02T01:36:14.206Z,59.46
2023-03-02T01:38:42.397Z,59.65
2023-03-02T01:41:10.878Z,59.67
2023-03-02T01:43:39.319Z,59.64
2023-03-02T01:46:13.362Z,60.00
2023-03-02T01:48:48.763Z,60.40
2023-03-02T01:51:23.043Z,60.35
2023-03-02T01:53:55.667Z,60.78
2023-03-02T01:56:28.146Z,60.58
2023-03-02T01:59:01.428Z,60.67
2023-03-02T02:01:31.978Z,61.10
2023-03-02T02:04:02.286Z,60.89
2023-03-02T02:06:36.881Z,60.99
2023-03-02T02:09:08.121Z,61.01
2023-03-02T02:11:37.141Z,60.93
2023-03-02T02:14:06.316Z,60.88
2023-03-02T02:16:36.550Z,61.16
2023-03-02T02:19:14.165Z,60.95
2023-03-02T02:21:42.382Z,61.56
2023-03-02T02:24:16.306Z,61.68
2023-03-02T02:26:48.490Z,61.60
2023-03-02T02:29:22.228Z,61.55
2023-03-02T02:31:56.326Z,61.44
2023-03-02T02:34:30.860Z,61.52
2023-03-02T02:37:06.315Z,61.47
2023-03-02T02:39:37.025Z,61.38
2023-03-02T02:42:11.482Z,61.64
2023-03-02T02:44:39.860Z,61.80
2023-03-02T02:47:16.892Z,61.80
2023-03-02T02:49:46.291Z,61.40
2023-03-02T02:52:17.187Z,61.58
2023-03-02T02:54:47.988Z,61.72
2023-03-02T02:57:18.276Z,61.58
2023-03-02T02:59:50.398Z,61.40
2023-03-02T03:02:22.186Z,61.46
2023-03-02T03:04:51.418Z,61.43
2023-03-02T03:07:23.108Z,61.92
2023-03-02T03:09:59.468Z,62.01
2023-03-02T03:12:31.760Z,61.70
2023-03-02T03:15:01.178Z,61.75
2023-03-02T03:17:30.581Z,62.02
2023-03-02T03:20:05.827Z,61.76
2023-03-02T03:22:37.896Z,61.82
2023-03-02T03:25:17.981Z,61.47
2023-03-02T03:27:53.627Z,61.60
2023-03-02T03:30:22.450Z,61.23
2023-03-02T03:32:51.053Z,61.40
2023-03-02T03:35:19.570Z,61.21
2023-03-02T03:37:48.919Z,61.30
2023-03-02T03:40:17.909Z,61.37
2023-03-02T03:42:46.700Z,61.11
2023-03-02T03:45:15.316Z,61.23
2023-03-02T03:47:44.687Z,61.38
2023-03-02T03:50:13.344Z,61.13
2023-03-02T03:52:41.937Z,60.91
2023-03-02T03:55:20.656Z,60.84
2023-03-02T03:57:49.871Z,60.92
2023-03-02T04:00:19.752Z,60.96
2023-03-02T04:02:51.008Z,60.98
2023-03-02T04:05:20.111Z,61.20
2023-03-02T04:07:51.824Z,61.18
2023-03-02T04:10:20.661Z,60.83
2023-03-02T04:12:49.566Z,61.17
2023-03-02T04:15:18.087Z,61.01
2023-03-02T04:17:48.231Z,61.10
2023-03-02T04:20:20.751Z,61.20
2023-03-02T04:22:54.073Z,61.01
2023-03-02T04:25:24.997Z,60.90
2023-03-02T04:27:56.174Z,60.51
2023-03-02T04:30:28.433Z,60.36
2023-03-02T04:32:57.224Z,60.36
2023-03-02T04:35:26.802Z,60.85
2023-03-02T04:37:55.129Z,60.66
2023-03-02T04:40:23.796Z,60.91
2023-03-02T04:42:52.019Z,60.78
2023-03-02T04:45:21.430Z,60.62
2023-03-02T04:47:49.645Z,60.98
2023-03-02T04:50:17.857Z,60.80
2023-03-02T04:52:46.142Z,60.91
2023-03-02T04:55:20.899Z,60.78
2023-03-02T04:57:49.284Z,60.57
2023-03-02T05:00:18.764Z,60.66
2023-03-02T05:02:47.313Z,60.66
2023-03-02T05:05:18.598Z,60.70
2023-03-02T05:07:47.274Z,60.43
2023-03-02T05:10:17.120Z,60.65
2023-03-02T05:12:57.329Z,60.16
2023-03-02T05:19:07.320Z,60.68
2023-03-02T05:21:38.394Z,60.28
2023-03-02T05:24:07.812Z,60.63
2023-03-02T05:26:39.018Z,60.53
2023-03-02T05:29:11.000Z,60.43
2023-03-02T05:31:42.494Z,60.56
2023-03-02T05:34:13.858Z,60.71
2023-03-02T05:36:42.865Z,60.67
2023-03-02T05:39:14.893Z,60.60
2023-03-02T05:41:43.594Z,60.91
2023-03-02T05:44:17.165Z,60.57
2023-03-02T05:46:45.489Z,60.50
2023-03-02T05:49:13.840Z,60.68
2023-03-02T05:51:42.127Z,60.59
2023-03-02T05:54:10.341Z,60.57
2023-03-02T05:56:42.144Z,60.86
2023-03-02T05:59:10.407Z,60.97
2023-03-02T06:01:38.732Z,60.90
2023-03-02T06:04:06.938Z,60.65
2023-03-02T06:06:35.604Z,60.84
2023-03-02T06:09:04.459Z,60.82
2023-03-02T06:11:32.854Z,61.22
2023-03-02T06:14:01.189Z,61.13
2023-03-02T06:16:31.435Z,60.66
2023-03-02T06:22:06.120Z,60.46
2023-03-02T06:24:34.567Z,60.24
2023-03-02T06:27:02.841Z,60.47
2023-03-02T06:29:31.142Z,60.64
2023-03-02T06:31:59.487Z,60.73
2023-03-02T06:34:28.804Z,60.81
2023-03-02T06:36:57.052Z,60.80
2023-03-02T06:39:25.286Z,60.96
2023-03-02T06:41:53.784Z,60.48
2023-03-02T06:44:21.973Z,60.32
2023-03-02T06:46:50.221Z,60.43
2023-03-02T06:49:18.441Z,60.73
2023-03-02T06:52:13.925Z,60.64
2023-03-02T06:54:42.513Z,60.57
2023-03-02T06:57:21.698Z,60.42
2023-03-02T06:59:53.071Z,60.45
2023-03-02T07:02:23.682Z,60.38
2023-03-02T07:04:52.029Z,60.63
2023-03-02T07:07:20.221Z,60.51
2023-03-02T07:09:48.512Z,60.42
2023-03-02T07:12:30.936Z,60.50
2023-03-02T07:14:59.215Z,60.12
2023-03-02T07:17:53.635Z,60.34
2023-03-02T07:20:22.162Z,60.57
2023-03-02T07:22:50.267Z,60.59
2023-03-02T07:25:18.714Z,60.46
2023-03-02T07:27:47.100Z,60.77
2023-03-02T07:30:15.465Z,60.47
2023-03-02T07:32:43.710Z,60.41
2023-03-02T07:35:11.929Z,60.49
2023-03-02T07:37:40.301Z,60.72
2023-03-02T07:40:12.509Z,60.96
2023-03-02T07:42:41.016Z,60.88
2023-03-02T07:45:14.868Z,60.67
2023-03-02T07:47:43.183Z,60.72
2023-03-02T07:50:12.529Z,60.36
2023-03-02T07:52:40.739Z,60.65
2023-03-02T07:55:10.492Z,60.81
2023-03-02T07:57:38.784Z,61.04
2023-03-02T08:00:13.837Z,60.93
2023-03-02T08:02:42.940Z,60.96
2023-03-02T08:05:12.713Z,60.94
2023-03-02T08:07:41.681Z,60.56
2023-03-02T08:10:12.242Z,60.47
2023-03-02T08:12:42.287Z,60.47
2023-03-02T08:15:12.300Z,60.54
2023-03-02T08:17:40.568Z,60.77
2023-03-02T08:20:10.866Z,60.73
2023-03-02T08:22:41.593Z,60.69
2023-03-02T08:25:10.124Z,60.49
2023-03-02T08:27:39.710Z,60.34
2023-03-02T08:30:10.508Z,60.27
2023-03-02T08:32:39.776Z,60.21
2023-03-02T08:35:09.593Z,60.32
2023-03-02T08:37:37.801Z,60.08
2023-03-02T08:40:08.659Z,60.15
2023-03-02T08:42:36.978Z,60.24
2023-03-02T08:45:07.586Z,60.29
2023-03-02T08:47:35.855Z,60.16
2023-03-02T08:50:04.744Z,60.17
2023-03-02T08:52:35.429Z,60.03
2023-03-02T08:55:04.989Z,59.91
2023-03-02T08:57:34.295Z,60.05
2023-03-02T09:00:03.270Z,59.92
2023-03-02T09:02:31.699Z,60.42
2023-03-02T09:05:00.021Z,60.60
2023-03-02T09:07:29.952Z,60.21
2023-03-02T09:09:58.241Z,60.47
2023-03-02T09:12:26.573Z,60.34
2023-03-02T09:14:54.833Z,60.53
2023-03-02T09:17:23.054Z,60.30
2023-03-02T09:19:51.252Z,60.09
2023-03-02T09:22:19.436Z,59.91
2023-03-02T09:24:47.648Z,60.05
2023-03-02T09:27:16.488Z,59.82
2023-03-02T09:29:44.639Z,60.21
2023-03-02T09:32:15.336Z,59.91
2023-03-02T09:34:43.680Z,60.00
2023-03-02T09:37:12.084Z,59.85
2023-03-02T09:39:40.480Z,60.00
2023-03-02T09:42:48.172Z,60.13
2023-03-02T09:45:30.826Z,60.08
2023-03-02T09:48:13.043Z,59.85
2023-03-02T09:50:51.874Z,59.93
2023-03-02T09:53:47.278Z,60.05
2023-03-02T09:56:19.024Z,59.90
2023-03-02T09:58:53.875Z,59.85
2023-03-02T10:01:34.383Z,59.61
2023-03-02T10:04:14.149Z,59.95
2023-03-02T10:06:42.676Z,59.74
2023-03-02T10:09:11.429Z,59.53
2023-03-02T10:11:50.310Z,59.28
2023-03-02T10:14:25.594Z,59.21
2023-03-02T10:17:04.020Z,59.25
2023-03-02T10:19:41.739Z,59.12
2023-03-02T10:22:17.874Z,59.57
2023-03-02T10:24:52.375Z,59.25
2023-03-02T10:27:28.952Z,58.97
2023-03-02T10:30:03.205Z,58.81
2023-03-02T10:32:37.094Z,58.52
2023-03-02T10:35:13.967Z,58.48
2023-03-02T10:37:42.440Z,58.47
2023-03-02T10:40:30.031Z,58.45
2023-03-02T10:42:59.357Z,58.03
2023-03-02T10:45:30.725Z,57.91
2023-03-02T10:48:04.215Z,57.87
2023-03-02T10:50:32.870Z,57.82
2023-03-02T10:53:04.124Z,57.80
2023-03-02T10:55:35.141Z,57.62
2023-03-02T10:58:21.683Z,57.34
2023-03-02T11:01:01.346Z,57.58
2023-03-02T11:03:33.242Z,57.44
2023-03-02T11:06:17.648Z,57.38
2023-03-02T11:08:46.324Z,57.47
2023-03-02T11:11:23.596Z,57.32
2023-03-02T11:13:52.465Z,57.27
2023-03-02T11:16:28.299Z,57.46
2023-03-02T11:19:01.492Z,57.28
2023-03-02T11:21:35.146Z,56.93
2023-03-02T11:24:10.748Z,56.97
2023-03-02T11:26:45.577Z,56.96
2023-03-02T11:29:27.186Z,56.98
2023-03-02T11:31:58.623Z,56.63
2023-03-02T11:34:33.167Z,56.37
2023-03-02T11:37:12.988Z,56.41
2023-03-02T11:40:01.162Z,56.05
2023-03-02T11:42:33.510Z,55.91
2023-03-02T11:45:08.664Z,55.79
2023-03-02T11:47:38.044Z,55.98
2023-03-02T11:50:11.575Z,55.97
2023-03-02T11:52:45.136Z,56.05
2023-03-02T11:55:21.940Z,56.05
2023-03-02T11:57:54.053Z,56.24
2023-03-02T12:00:30.916Z,56.04
2023-03-02T12:03:02.572Z,56.19
2023-03-02T12:05:35.152Z,56.18
2023-03-02T12:08:06.703Z,56.22
2023-03-02T12:10:39.950Z,55.94
2023-03-02T12:13:19.506Z,55.89
2023-03-02T12:15:50.074Z,55.83
2023-03-02T12:18:43.530Z,55.85
2023-03-02T12:21:14.448Z,55.97
2023-03-02T12:23:57.597Z,55.91
2023-03-02T12:26:31.481Z,55.90
2023-03-02T12:29:23.741Z,55.94
2023-03-02T12:31:54.902Z,55.81
2023-03-02T12:34:33.143Z,56.00
2023-03-02T12:37:05.932Z,55.83
2023-03-02T12:40:03.287Z,55.88
2023-03-02T12:42:52.486Z,55.61
2023-03-02T12:45:41.699Z,55.76
2023-03-02T12:48:28.000Z,55.89
2023-03-02T12:51:01.092Z,55.71
2023-03-02T12:53:30.499Z,55.56
2023-03-02T12:56:11.678Z,55.28
2023-03-02T12:58:40.117Z,55.15
2023-03-02T13:01:20.092Z,55.23
2023-03-02T13:03:52.710Z,55.24
2023-03-02T13:06:25.107Z,55.24
2023-03-02T13:09:00.805Z,55.26
2023-03-02T13:11:33.229Z,55.09
2023-03-02T13:14:17.385Z,55.04
2023-03-02T13:16:55.089Z,54.61
2023-03-02T13:19:24.422Z,54.15
2023-03-02T13:21:53.222Z,54.35
2023-03-02T13:24:46.146Z,54.43
2023-03-02T13:27:52.033Z,54.57
2023-03-02T13:30:27.018Z,54.49
2023-03-02T13:38:24.343Z,54.06
2023-03-02T13:41:25.693Z,54.20
2023-03-02T13:43:56.936Z,54.20
2023-03-02T13:46:39.188Z,54.05
2023-03-02T13:49:37.042Z,54.03
2023-03-02T13:52:27.682Z,54.02
2023-03-02T13:54:58.691Z,54.25
2023-03-02T13:57:32.477Z,54.36
2023-03-02T14:00:05.459Z,54.21
2023-03-02T14:02:36.247Z,54.28
2023-03-02T14:05:11.299Z,54.19
2023-03-02T14:07:42.261Z,54.09
2023-03-02T14:10:15.816Z,54.28
2023-03-02T14:12:54.649Z,54.33
2023-03-02T14:15:26.081Z,54.25
2023-03-02T14:18:34.029Z,54.28
2023-03-02T14:21:05.237Z,54.13
2023-03-02T14:23:36.310Z,54.18
2023-03-02T14:26:20.528Z,53.99
2023-03-02T14:29:04.682Z,54.26
2023-03-02T14:31:38.481Z,54.03
2023-03-02T14:34:15.131Z,53.96
2023-03-02T14:36:48.129Z,54.25
2023-03-02T14:39:52.008Z,54.16
2023-03-02T14:43:30.813Z,54.11
2023-03-02T14:46:01.708Z,54.35
2023-03-02T14:49:11.970Z,54.06
2023-03-02T14:52:30.161Z,54.16
2023-03-02T14:55:29.755Z,54.07
2023-03-02T14:58:06.608Z,54.26
2023-03-02T15:00:37.745Z,54.24
2023-03-02T15:03:10.738Z,54.16
2023-03-02T15:05:44.211Z,54.09
2023-03-02T15:08:20.138Z,54.14
2023-03-02T15:10:52.118Z,54.24
2023-03-02T15:13:22.991Z,54.04
2023-03-02T15:15:53.959Z,54.01
2023-03-02T15:18:25.099Z,54.04
2023-03-02T15:20:56.243Z,54.19
2023-03-02T15:23:27.384Z,54.09
2023-03-02T15:26:02.830Z,54.31
2023-03-02T15:28:34.009Z,54.42
2023-03-02T15:31:14.259Z,54.50
2023-03-02T15:33:46.382Z,54.46
2023-03-02T15:36:18.181Z,54.44
2023-03-02T15:38:51.717Z,54.44
2023-03-02T15:41:22.813Z,54.32
2023-03-02T15:43:54.992Z,54.80
2023-03-02T15:46:27.345Z,54.29
2023-03-02T15:48:58.465Z,54.48
2023-03-02T15:51:29.568Z,54.81
2023-03-02T15:54:00.876Z,54.67
2023-03-02T15:56:42.423Z,54.84
2023-03-02T15:59:15.086Z,54.52
2023-03-02T16:01:46.360Z,54.78
2023-03-02T16:04:17.450Z,54.69
2023-03-02T16:06:51.228Z,55.04
2023-03-02T16:09:23.919Z,54.94
2023-03-02T16:12:00.195Z,54.88
2023-03-02T16:14:31.138Z,55.33
2023-03-02T16:17:02.981Z,55.47
2023-03-02T16:19:34.361Z,55.09
2023-03-02T16:22:05.427Z,55.51
2023-03-02T16:24:38.321Z,55.68
2023-03-02T16:27:10.313Z,55.52
2023-03-02T16:29:48.426Z,55.75
2023-03-02T16:32:30.265Z,56.10
2023-03-02T16:35:01.500Z,55.95
2023-03-02T16:37:32.779Z,56.51
2023-03-02T16:40:03.786Z,56.23
2023-03-02T16:42:35.662Z,55.95
2023-03-02T16:45:11.153Z,56.35
2023-03-02T16:47:42.259Z,56.69
2023-03-02T16:50:14.926Z,56.71
2023-03-02T16:52:45.905Z,56.74
2023-03-02T16:55:21.293Z,56.87
2023-03-02T16:57:52.225Z,56.94
2023-03-02T17:00:25.409Z,57.07
2023-03-02T17:02:56.403Z,57.28
2023-03-02T17:05:27.531Z,57.10
2023-03-02T17:08:00.174Z,57.41
2023-03-02T17:10:31.490Z,57.55
2023-03-02T17:13:05.786Z,57.69
2023-03-02T17:15:36.966Z,57.71
2023-03-02T17:18:09.513Z,57.92
2023-03-02T17:20:41.181Z,57.59
2023-03-02T17:23:14.656Z,57.74
2023-03-02T17:25:45.935Z,57.98
2023-03-02T17:28:27.492Z,58.13
2023-03-02T17:30:58.497Z,58.25
2023-03-02T17:33:31.112Z,58.12
2023-03-02T17:36:17.627Z,58.29
2023-03-02T17:38:49.004Z,58.70
2023-03-02T17:41:23.517Z,58.41
2023-03-02T17:44:06.920Z,58.50
2023-03-02T17:46:38.016Z,58.74
2023-03-02T17:49:08.850Z,58.76
2023-03-02T17:51:40.766Z,59.01
2023-03-02T17:54:21.384Z,59.01
2023-03-02T17:56:52.865Z,58.95
2023-03-02T17:59:24.208Z,58.99
2023-03-02T18:01:55.922Z,58.99
2023-03-02T18:04:29.716Z,59.03
2023-03-02T18:07:01.904Z,59.07
2023-03-02T18:09:35.411Z,59.17
2023-03-02T18:12:08.729Z,59.13
2023-03-02T18:14:41.666Z,59.41
2023-03-02T18:17:40.478Z,59.36
2023-03-02T18:20:21.105Z,59.33
2023-03-02T18:22:52.463Z,59.31
2023-03-02T18:25:23.993Z,59.72
2023-03-02T18:27:55.325Z,59.62
2023-03-02T18:30:26.459Z,59.70
2023-03-02T18:32:57.546Z,59.75
2023-03-02T18:35:44.765Z,59.78
2023-03-02T18:38:15.855Z,59.89
2023-03-02T18:40:49.971Z,59.89
2023-03-02T18:43:20.843Z,60.09
2023-03-02T18:46:05.124Z,60.12
2023-03-02T18:48:37.564Z,59.86
2023-03-02T18:51:08.495Z,59.90
2023-03-02T18:53:41.471Z,60.08
2023-03-02T18:56:12.928Z,59.86
2023-03-02T18:58:44.579Z,60.01
2023-03-02T19:01:19.270Z,60.07
2023-03-02T19:03:57.842Z,60.25
2023-03-02T19:07:25.059Z,60.15
2023-03-02T19:10:44.691Z,60.12
2023-03-02T19:13:39.283Z,60.17
2023-03-02T19:16:10.981Z,60.30
2023-03-02T19:18:56.065Z,60.40
2023-03-02T19:21:28.205Z,60.48
2023-03-02T19:24:02.193Z,60.84
2023-03-02T19:26:33.128Z,60.84
2023-03-02T19:29:06.585Z,60.97
2023-03-02T19:31:40.570Z,61.02
2023-03-02T19:34:11.645Z,61.19
2023-03-02T19:36:42.932Z,61.36
2023-03-02T19:39:14.124Z,61.31
2023-03-02T19:41:45.655Z,61.22
2023-03-02T19:48:55.859Z,61.22
2023-03-02T19:51:28.872Z,61.03
2023-03-02T19:54:03.103Z,61.22
2023-03-02T19:56:39.806Z,61.26
2023-03-02T19:59:11.321Z,61.31
2023-03-02T20:01:42.861Z,61.36
2023-03-02T20:04:13.900Z,61.41
2023-03-02T20:06:45.483Z,61.48
2023-03-02T20:09:19.792Z,61.66
2023-03-02T20:11:50.765Z,61.51
2023-03-02T20:14:33.480Z,61.48
2023-03-02T20:17:05.437Z,61.60
2023-03-02T20:19:36.614Z,61.68
2023-03-02T20:22:09.585Z,61.64
2023-03-02T20:24:41.668Z,61.86
2023-03-02T20:27:16.494Z,61.68
2023-03-02T20:29:49.095Z,61.82
2023-03-02T20:32:19.979Z,62.00
2023-03-02T20:34:52.089Z,62.09
2023-03-02T20:37:25.879Z,62.19
2023-03-02T20:39:56.997Z,62.29
2023-03-02T20:42:31.208Z,62.23
2023-03-02T20:45:03.249Z,62.32
2023-03-02T20:47:34.603Z,62.42
2023-03-02T20:50:09.784Z,62.40
2023-03-02T20:52:39.248Z,62.42
2023-03-02T20:55:12.264Z,62.50
2023-03-02T20:57:43.229Z,62.71
2023-03-02T21:00:20.815Z,62.66
2023-03-02T21:02:52.603Z,62.79
2023-03-02T21:05:26.451Z,62.83
2023-03-02T21:07:57.957Z,62.75
2023-03-02T21:10:38.357Z,62.87
2023-03-02T21:13:12.010Z,62.89
2023-03-02T21:15:46.435Z,62.89
2023-03-02T21:18:19.310Z,62.93
2023-03-02T21:20:50.220Z,62.87
2023-03-02T21:23:21.822Z,62.96
2023-03-02T21:25:52.744Z,62.78
2023-03-02T21:28:24.263Z,62.62
2023-03-02T21:31:08.271Z,62.51
2023-03-02T21:33:39.485Z,62.54
2023-03-02T21:36:16.089Z,62.33
2023-03-02T21:38:47.200Z,62.13
2023-03-02T21:41:18.597Z,62.28
2023-03-02T21:43:50.027Z,62.42
2023-03-02T21:46:23.566Z,62.10
2023-03-02T21:48:55.410Z,62.41
2023-03-02T21:51:27.352Z,62.60
2023-03-02T21:54:00.197Z,62.55
2023-03-02T21:56:35.134Z,62.50
2023-03-02T21:59:08.157Z,62.45
2023-03-02T22:01:39.420Z,62.45
2023-03-02T22:04:13.230Z,62.69
2023-03-02T22:06:47.632Z,62.65
2023-03-02T22:09:26.432Z,62.88
2023-03-02T22:12:52.585Z,62.96
2023-03-02T22:15:28.337Z,62.92
2023-03-02T22:18:01.956Z,62.87
2023-03-02T22:20:33.085Z,62.81
2023-03-02T22:23:14.297Z,62.98
2023-03-02T22:25:48.018Z,63.06
2023-03-02T22:28:21.360Z,63.07
2023-03-02T22:30:54.436Z,63.03
2023-03-02T22:33:29.121Z,63.07
2023-03-02T22:36:12.716Z,63.07
2023-03-02T22:38:43.586Z,63.17
2023-03-02T22:41:20.999Z,63.19
2023-03-02T22:43:53.139Z,63.33
2023-03-02T22:46:26.919Z,63.44
2023-03-02T22:49:45.173Z,63.40
2023-03-02T22:52:21.027Z,63.59
2023-03-02T22:54:57.308Z,63.59
2023-03-02T22:57:36.740Z,63.57
2023-03-02T23:00:35.968Z,63.50
2023-03-02T23:03:17.650Z,63.69
2023-03-02T23:09:32.541Z,63.56
2023-03-02T23:12:07.155Z,63.48
2023-03-02T23:12:34.842Z,63.65
2023-03-02T23:14:52.009Z,63.58
2023-03-02T23:17:39.606Z,63.42
2023-03-02T23:20:15.628Z,63.50
2023-03-02T23:26:00.924Z,63.67
2023-03-02T23:28:32.095Z,63.83
2023-03-02T23:31:02.874Z,63.79
2023-03-02T23:33:34.971Z,63.87
2023-03-02T23:36:07.781Z,63.88
2023-03-02T23:38:39.140Z,63.82
2023-03-02T23:41:10.334Z,64.05
2023-03-02T23:43:41.601Z,63.88
2023-03-02T23:46:14.430Z,63.90
2023-03-02T23:48:45.994Z,63.92
2023-03-02T23:51:17.077Z,63.91
2023-03-02T23:53:48.076Z,63.84
2023-03-02T23:56:20.052Z,63.78
2023-03-02T23:58:51.111Z,63.65
